Terminal Aerodrome Forecast
Issued by NWS

Home | Current Version | Previous Version | Graphics & Text | Print | Product List | Glossary On
Versions: 1 2 3 4 5 6 7 8 9 10 11 12 13 14 15 16 17 18 19 20 21
000
FTUS43 KFGF 041612 AAC
TAFBJI
TAF AMD
KBJI 041612Z 0416/0512 13013KT P6SM OVC009
     FM042200 13010KT P6SM VCTS BKN025CB
     FM050200 13008KT P6SM BKN050
     FM050600 13005KT P6SM BKN250=

USA.gov is the U.S. government's official web portal to all federal, state and local government web resources and services.